sensor_id;sensor_type;location;lat;lon;timestamp;temperature;humidity
27128;DHT22;14660;49.008;8.390;2022-12-18T00:01:36;-4.90;99.90
27128;DHT22;14660;49.008;8.390;2022-12-18T00:04:07;-5.00;99.90
27128;DHT22;14660;49.008;8.390;2022-12-18T00:06:35;-5.10;99.90
27128;DHT22;14660;49.008;8.390;2022-12-18T00:09:03;-5.10;99.90
27128;DHT22;14660;49.008;8.390;2022-12-18T00:11:31;-5.00;99.90
27128;DHT22;14660;49.008;8.390;2022-12-18T00:13:59;-4.80;99.90
27128;DHT22;14660;49.008;8.390;2022-12-18T00:16:27;-5.00;99.90
27128;DHT22;14660;49.008;8.390;2022-12-18T00:18:55;-5.10;99.90
27128;DHT22;14660;49.008;8.390;2022-12-18T00:21:27;-5.00;99.90
27128;DHT22;14660;49.008;8.390;2022-12-18T00:23:54;-5.00;99.90
27128;DHT22;14660;49.008;8.390;2022-12-18T00:26:28;-5.10;99.90
27128;DHT22;14660;49.008;8.390;2022-12-18T00:28:58;-5.10;99.90
27128;DHT22;14660;49.008;8.390;2022-12-18T00:31:25;-4.90;99.90
27128;DHT22;14660;49.008;8.390;2022-12-18T00:33:56;-4.80;99.90
27128;DHT22;14660;49.008;8.390;2022-12-18T00:36:34;-4.80;99.90
27128;DHT22;14660;49.008;8.390;2022-12-18T00:39:04;-5.00;99.90
27128;DHT22;14660;49.008;8.390;2022-12-18T00:41:31;-4.90;99.90
27128;DHT22;14660;49.008;8.390;2022-12-18T00:44:18;-4.90;99.90
27128;DHT22;14660;49.008;8.390;2022-12-18T00:46:46;-4.70;99.90
27128;DHT22;14660;49.008;8.390;2022-12-18T00:49:14;-4.60;99.90
27128;DHT22;14660;49.008;8.390;2022-12-18T00:51:40;-4.80;99.90
27128;DHT22;14660;49.008;8.390;2022-12-18T00:54:07;-5.00;99.90
27128;DHT22;14660;49.008;8.390;2022-12-18T00:56:35;-5.10;99.90
27128;DHT22;14660;49.008;8.390;2022-12-18T00:59:03;-5.10;99.90
27128;DHT22;14660;49.008;8.390;2022-12-18T01:01:30;-5.00;99.90
27128;DHT22;14660;49.008;8.390;2022-12-18T01:03:57;-5.00;99.90
27128;DHT22;14660;49.008;8.390;2022-12-18T01:06:24;-5.00;99.90
27128;DHT22;14660;49.008;8.390;2022-12-18T01:08:51;-5.10;99.90
27128;DHT22;14660;49.008;8.390;2022-12-18T01:11:19;-4.90;99.90
27128;DHT22;14660;49.008;8.390;2022-12-18T01:13:46;-4.80;99.90
27128;DHT22;14660;49.008;8.390;2022-12-18T01:16:15;-4.80;99.90
27128;DHT22;14660;49.008;8.390;2022-12-18T01:18:42;-4.90;99.90
27128;DHT22;14660;49.008;8.390;2022-12-18T01:21:12;-4.90;99.90
27128;DHT22;14660;49.008;8.390;2022-12-18T01:23:40;-5.00;99.90
27128;DHT22;14660;49.008;8.390;2022-12-18T01:26:14;-4.70;99.90
27128;DHT22;14660;49.008;8.390;2022-12-18T01:28:42;-4.60;99.90
27128;DHT22;14660;49.008;8.390;2022-12-18T01:31:16;-4.80;99.90
27128;DHT22;14660;49.008;8.390;2022-12-18T01:33:44;-5.10;99.90
27128;DHT22;14660;49.008;8.390;2022-12-18T01:36:29;-5.10;99.90
27128;DHT22;14660;49.008;8.390;2022-12-18T01:38:59;-5.10;99.90
27128;DHT22;14660;49.008;8.390;2022-12-18T01:41:28;-5.00;99.90
27128;DHT22;14660;49.008;8.390;2022-12-18T01:47:41;-5.00;99.90
27128;DHT22;14660;49.008;8.390;2022-12-18T01:50:36;-4.90;99.90
27128;DHT22;14660;49.008;8.390;2022-12-18T01:53:22;-5.00;99.90
27128;DHT22;14660;49.008;8.390;2022-12-18T01:55:53;-4.80;99.90
27128;DHT22;14660;49.008;8.390;2022-12-18T01:58:24;-4.70;99.90
27128;DHT22;14660;49.008;8.390;2022-12-18T02:00:55;-5.00;99.90
27128;DHT22;14660;49.008;8.390;2022-12-18T02:03:22;-5.10;99.90
27128;DHT22;14660;49.008;8.390;2022-12-18T02:06:13;-5.30;99.90
27128;DHT22;14660;49.008;8.390;2022-12-18T02:18:11;-4.90;99.90
27128;DHT22;14660;49.008;8.390;2022-12-18T02:21:12;-4.80;99.90
27128;DHT22;14660;49.008;8.390;2022-12-18T02:26:36;-5.00;99.90
27128;DHT22;14660;49.008;8.390;2022-12-18T02:29:10;-4.80;99.90
27128;DHT22;14660;49.008;8.390;2022-12-18T02:31:45;-4.80;99.90
27128;DHT22;14660;49.008;8.390;2022-12-18T02:34:14;-4.90;99.90
27128;DHT22;14660;49.008;8.390;2022-12-18T02:36:44;-4.90;99.90
27128;DHT22;14660;49.008;8.390;2022-12-18T02:39:12;-4.80;99.90
27128;DHT22;14660;49.008;8.390;2022-12-18T02:41:40;-4.80;99.90
27128;DHT22;14660;49.008;8.390;2022-12-18T02:44:10;-4.60;99.90
27128;DHT22;14660;49.008;8.390;2022-12-18T02:46:46;-4.70;99.90
27128;DHT22;14660;49.008;8.390;2022-12-18T03:04:03;-5.00;99.90
27128;DHT22;14660;49.008;8.390;2022-12-18T03:06:49;-4.90;99.90
27128;DHT22;14660;49.008;8.390;2022-12-18T03:09:29;-5.00;99.90
27128;DHT22;14660;49.008;8.390;2022-12-18T03:12:04;-4.90;99.90
27128;DHT22;14660;49.008;8.390;2022-12-18T03:15:10;-4.90;99.90
27128;DHT22;14660;49.008;8.390;2022-12-18T03:17:41;-4.80;99.90
27128;DHT22;14660;49.008;8.390;2022-12-18T03:20:13;-4.80;99.90
27128;DHT22;14660;49.008;8.390;2022-12-18T03:22:43;-4.90;99.90
27128;DHT22;14660;49.008;8.390;2022-12-18T03:25:13;-5.00;99.90
27128;DHT22;14660;49.008;8.390;2022-12-18T03:27:44;-4.80;99.90
27128;DHT22;14660;49.008;8.390;2022-12-18T03:30:16;-4.90;99.90
27128;DHT22;14660;49.008;8.390;2022-12-18T03:33:10;-5.00;99.90
27128;DHT22;14660;49.008;8.390;2022-12-18T03:35:42;-4.90;99.90
27128;DHT22;14660;49.008;8.390;2022-12-18T03:38:11;-5.00;99.90
27128;DHT22;14660;49.008;8.390;2022-12-18T03:46:30;-5.10;99.90
27128;DHT22;14660;49.008;8.390;2022-12-18T03:49:10;-5.10;99.90
27128;DHT22;14660;49.008;8.390;2022-12-18T03:51:42;-5.00;99.90
27128;DHT22;14660;49.008;8.390;2022-12-18T03:54:12;-5.00;99.90
27128;DHT22;14660;49.008;8.390;2022-12-18T03:56:49;-4.90;99.90
27128;DHT22;14660;49.008;8.390;2022-12-18T03:59:19;-4.90;99.90
27128;DHT22;14660;49.008;8.390;2022-12-18T04:01:48;-4.90;99.90
27128;DHT22;14660;49.008;8.390;2022-12-18T04:04:17;-4.90;99.90
27128;DHT22;14660;49.008;8.390;2022-12-18T04:06:46;-4.90;99.90
27128;DHT22;14660;49.008;8.390;2022-12-18T04:09:14;-5.00;99.90
27128;DHT22;14660;49.008;8.390;2022-12-18T04:11:42;-5.00;99.90
27128;DHT22;14660;49.008;8.390;2022-12-18T04:14:11;-5.00;99.90
27128;DHT22;14660;49.008;8.390;2022-12-18T04:16:37;-5.10;99.90
27128;DHT22;14660;49.008;8.390;2022-12-18T04:19:04;-4.90;99.90
27128;DHT22;14660;49.008;8.390;2022-12-18T04:21:31;-4.90;99.90
27128;DHT22;14660;49.008;8.390;2022-12-18T04:23:58;-5.00;99.90
27128;DHT22;14660;49.008;8.390;2022-12-18T04:26:25;-5.20;99.90
27128;DHT22;14660;49.008;8.390;2022-12-18T04:28:52;-5.40;99.90
27128;DHT22;14660;49.008;8.390;2022-12-18T04:31:18;-5.40;99.90
27128;DHT22;14660;49.008;8.390;2022-12-18T04:33:45;-5.50;99.90
27128;DHT22;14660;49.008;8.390;2022-12-18T04:36:12;-5.50;99.90
27128;DHT22;14660;49.008;8.390;2022-12-18T04:38:39;-5.40;99.90
27128;DHT22;14660;49.008;8.390;2022-12-18T04:41:05;-5.50;99.90
27128;DHT22;14660;49.008;8.390;2022-12-18T04:43:32;-5.50;99.90
27128;DHT22;14660;49.008;8.390;2022-12-18T04:46:07;-5.50;99.90
27128;DHT22;14660;49.008;8.390;2022-12-18T04:48:34;-5.60;99.90
27128;DHT22;14660;49.008;8.390;2022-12-18T04:51:01;-5.60;99.90
27128;DHT22;14660;49.008;8.390;2022-12-18T04:53:28;-5.50;99.90
27128;DHT22;14660;49.008;8.390;2022-12-18T04:56:24;-5.40;99.90
27128;DHT22;14660;49.008;8.390;2022-12-18T04:58:51;-5.20;99.90
27128;DHT22;14660;49.008;8.390;2022-12-18T05:01:18;-5.10;99.90
27128;DHT22;14660;49.008;8.390;2022-12-18T05:03:45;-5.20;99.90
27128;DHT22;14660;49.008;8.390;2022-12-18T05:06:12;-5.10;99.90
27128;DHT22;14660;49.008;8.390;2022-12-18T05:08:39;-5.00;99.90
27128;DHT22;14660;49.008;8.390;2022-12-18T05:11:11;-5.00;99.90
27128;DHT22;14660;49.008;8.390;2022-12-18T05:13:38;-5.00;99.90
27128;DHT22;14660;49.008;8.390;2022-12-18T05:16:05;-4.90;99.90
27128;DHT22;14660;49.008;8.390;2022-12-18T05:18:32;-5.10;99.90
27128;DHT22;14660;49.008;8.390;2022-12-18T05:20:59;-5.00;99.90
27128;DHT22;14660;49.008;8.390;2022-12-18T05:23:26;-5.00;99.90
27128;DHT22;14660;49.008;8.390;2022-12-18T05:26:14;-5.00;99.90
27128;DHT22;14660;49.008;8.390;2022-12-18T05:28:41;-5.00;99.90
27128;DHT22;14660;49.008;8.390;2022-12-18T05:31:08;-4.90;99.90
27128;DHT22;14660;49.008;8.390;2022-12-18T05:33:35;-4.80;99.90
27128;DHT22;14660;49.008;8.390;2022-12-18T05:36:05;-4.80;99.90
27128;DHT22;14660;49.008;8.390;2022-12-18T05:38:34;-4.60;99.90
27128;DHT22;14660;49.008;8.390;2022-12-18T05:41:00;-4.60;99.90
27128;DHT22;14660;49.008;8.390;2022-12-18T05:43:27;-4.50;99.90
27128;DHT22;14660;49.008;8.390;2022-12-18T05:45:55;-4.50;99.90
27128;DHT22;14660;49.008;8.390;2022-12-18T05:48:22;-4.50;99.90
27128;DHT22;14660;49.008;8.390;2022-12-18T05:50:50;-4.40;99.90
27128;DHT22;14660;49.008;8.390;2022-12-18T05:53:19;-4.40;99.90
27128;DHT22;14660;49.008;8.390;2022-12-18T05:55:46;-4.30;99.90
27128;DHT22;14660;49.008;8.390;2022-12-18T05:58:14;-4.20;99.90
27128;DHT22;14660;49.008;8.390;2022-12-18T06:00:43;-4.20;99.90
27128;DHT22;14660;49.008;8.390;2022-12-18T06:03:12;-4.20;99.90
27128;DHT22;14660;49.008;8.390;2022-12-18T06:05:44;-4.10;99.90
27128;DHT22;14660;49.008;8.390;2022-12-18T06:08:13;-4.10;99.90
27128;DHT22;14660;49.008;8.390;2022-12-18T06:10:40;-4.00;99.90
27128;DHT22;14660;49.008;8.390;2022-12-18T06:13:07;-4.10;99.90
27128;DHT22;14660;49.008;8.390;2022-12-18T06:15:37;-4.20;99.90
27128;DHT22;14660;49.008;8.390;2022-12-18T06:18:05;-4.10;99.90
27128;DHT22;14660;49.008;8.390;2022-12-18T06:20:32;-4.20;99.90
27128;DHT22;14660;49.008;8.390;2022-12-18T06:22:59;-3.90;99.90
27128;DHT22;14660;49.008;8.390;2022-12-18T06:25:26;-3.90;99.90
27128;DHT22;14660;49.008;8.390;2022-12-18T06:27:53;-4.00;99.90
27128;DHT22;14660;49.008;8.390;2022-12-18T06:30:27;-4.00;99.90
27128;DHT22;14660;49.008;8.390;2022-12-18T06:32:54;-3.90;99.90
27128;DHT22;14660;49.008;8.390;2022-12-18T06:35:21;-3.80;99.90
27128;DHT22;14660;49.008;8.390;2022-12-18T06:37:48;-3.90;99.90
27128;DHT22;14660;49.008;8.390;2022-12-18T06:40:15;-3.90;99.90
27128;DHT22;14660;49.008;8.390;2022-12-18T06:42:42;-3.90;99.90
27128;DHT22;14660;49.008;8.390;2022-12-18T06:45:09;-3.90;99.90
27128;DHT22;14660;49.008;8.390;2022-12-18T06:47:36;-3.90;99.90
27128;DHT22;14660;49.008;8.390;2022-12-18T06:50:03;-4.00;99.90
27128;DHT22;14660;49.008;8.390;2022-12-18T06:52:32;-4.00;99.90
27128;DHT22;14660;49.008;8.390;2022-12-18T06:54:59;-3.90;99.90
27128;DHT22;14660;49.008;8.390;2022-12-18T06:57:26;-3.90;99.90
27128;DHT22;14660;49.008;8.390;2022-12-18T06:59:53;-3.90;99.90
27128;DHT22;14660;49.008;8.390;2022-12-18T07:02:19;-3.90;99.90
27128;DHT22;14660;49.008;8.390;2022-12-18T07:04:49;-3.90;99.90
27128;DHT22;14660;49.008;8.390;2022-12-18T07:07:16;-3.80;99.90
27128;DHT22;14660;49.008;8.390;2022-12-18T07:09:43;-3.70;99.90
27128;DHT22;14660;49.008;8.390;2022-12-18T07:12:10;-4.00;99.90
27128;DHT22;14660;49.008;8.390;2022-12-18T07:14:37;-3.80;99.90
27128;DHT22;14660;49.008;8.390;2022-12-18T07:17:03;-3.80;99.90
27128;DHT22;14660;49.008;8.390;2022-12-18T07:19:30;-3.80;99.90
27128;DHT22;14660;49.008;8.390;2022-12-18T07:21:57;-3.60;99.90
27128;DHT22;14660;49.008;8.390;2022-12-18T07:24:24;-3.70;99.90
27128;DHT22;14660;49.008;8.390;2022-12-18T07:26:51;-3.60;99.90
27128;DHT22;14660;49.008;8.390;2022-12-18T07:29:17;-3.60;99.90
27128;DHT22;14660;49.008;8.390;2022-12-18T07:31:44;-3.50;99.90
27128;DHT22;14660;49.008;8.390;2022-12-18T07:34:12;-3.50;99.90
27128;DHT22;14660;49.008;8.390;2022-12-18T07:36:39;-3.70;99.90
27128;DHT22;14660;49.008;8.390;2022-12-18T07:39:06;-3.70;99.90
27128;DHT22;14660;49.008;8.390;2022-12-18T07:41:33;-3.70;99.90
27128;DHT22;14660;49.008;8.390;2022-12-18T07:44:00;-3.60;99.90
27128;DHT22;14660;49.008;8.390;2022-12-18T07:46:27;-3.50;99.90
27128;DHT22;14660;49.008;8.390;2022-12-18T07:48:54;-3.40;99.90
27128;DHT22;14660;49.008;8.390;2022-12-18T07:51:20;-3.40;99.90
27128;DHT22;14660;49.008;8.390;2022-12-18T07:53:47;-3.60;99.90
27128;DHT22;14660;49.008;8.390;2022-12-18T07:56:14;-3.60;99.90
27128;DHT22;14660;49.008;8.390;2022-12-18T07:58:41;-3.60;99.90
27128;DHT22;14660;49.008;8.390;2022-12-18T08:01:10;-3.70;99.90
27128;DHT22;14660;49.008;8.390;2022-12-18T08:03:38;-3.60;99.90
27128;DHT22;14660;49.008;8.390;2022-12-18T08:06:07;-3.60;99.90
27128;DHT22;14660;49.008;8.390;2022-12-18T08:08:35;-3.50;99.90
27128;DHT22;14660;49.008;8.390;2022-12-18T08:11:03;-3.60;99.90
27128;DHT22;14660;49.008;8.390;2022-12-18T08:13:30;-3.60;99.90
27128;DHT22;14660;49.008;8.390;2022-12-18T08:15:59;-3.60;99.90
27128;DHT22;14660;49.008;8.390;2022-12-18T08:18:27;-3.70;99.90
27128;DHT22;14660;49.008;8.390;2022-12-18T08:20:54;-3.70;99.90
27128;DHT22;14660;49.008;8.390;2022-12-18T08:23:21;-3.70;99.90
27128;DHT22;14660;49.008;8.390;2022-12-18T08:25:48;-3.60;99.90
27128;DHT22;14660;49.008;8.390;2022-12-18T08:28:14;-3.50;99.90
27128;DHT22;14660;49.008;8.390;2022-12-18T08:30:42;-3.60;99.90
27128;DHT22;14660;49.008;8.390;2022-12-18T08:33:09;-3.70;99.90
27128;DHT22;14660;49.008;8.390;2022-12-18T08:35:36;-3.80;99.90
27128;DHT22;14660;49.008;8.390;2022-12-18T08:38:03;-3.70;99.90
27128;DHT22;14660;49.008;8.390;2022-12-18T08:40:30;-3.70;99.90
27128;DHT22;14660;49.008;8.390;2022-12-18T08:42:57;-3.60;99.90
27128;DHT22;14660;49.008;8.390;2022-12-18T08:45:45;-3.40;99.90
27128;DHT22;14660;49.008;8.390;2022-12-18T08:48:13;-3.30;99.90
27128;DHT22;14660;49.008;8.390;2022-12-18T08:50:40;-3.40;99.90
27128;DHT22;14660;49.008;8.390;2022-12-18T08:53:07;-3.70;99.90
27128;DHT22;14660;49.008;8.390;2022-12-18T08:55:34;-3.50;99.90
27128;DHT22;14660;49.008;8.390;2022-12-18T08:58:01;-3.40;99.90
27128;DHT22;14660;49.008;8.390;2022-12-18T09:00:31;-3.30;99.90
27128;DHT22;14660;49.008;8.390;2022-12-18T09:02:58;-3.50;99.90
27128;DHT22;14660;49.008;8.390;2022-12-18T09:05:25;-3.40;99.90
27128;DHT22;14660;49.008;8.390;2022-12-18T09:07:52;-3.40;99.90
27128;DHT22;14660;49.008;8.390;2022-12-18T09:10:19;-3.30;99.90
27128;DHT22;14660;49.008;8.390;2022-12-18T09:12:46;-3.20;99.90
27128;DHT22;14660;49.008;8.390;2022-12-18T09:15:12;-3.20;99.90
27128;DHT22;14660;49.008;8.390;2022-12-18T09:17:39;-3.10;99.90
27128;DHT22;14660;49.008;8.390;2022-12-18T09:20:06;-3.00;99.90
27128;DHT22;14660;49.008;8.390;2022-12-18T09:22:33;-3.10;99.90
27128;DHT22;14660;49.008;8.390;2022-12-18T09:25:00;-3.20;99.90
27128;DHT22;14660;49.008;8.390;2022-12-18T09:27:27;-3.10;99.90
27128;DHT22;14660;49.008;8.390;2022-12-18T09:29:54;-2.90;99.90
27128;DHT22;14660;49.008;8.390;2022-12-18T09:32:21;-2.90;99.90
27128;DHT22;14660;49.008;8.390;2022-12-18T09:34:52;-2.80;99.90
27128;DHT22;14660;49.008;8.390;2022-12-18T09:37:19;-2.90;99.90
27128;DHT22;14660;49.008;8.390;2022-12-18T09:39:46;-2.70;99.90
27128;DHT22;14660;49.008;8.390;2022-12-18T09:42:20;-2.60;99.90
27128;DHT22;14660;49.008;8.390;2022-12-18T09:44:51;-2.60;99.90
27128;DHT22;14660;49.008;8.390;2022-12-18T09:47:36;-2.60;99.90
27128;DHT22;14660;49.008;8.390;2022-12-18T09:50:16;-2.40;99.90
27128;DHT22;14660;49.008;8.390;2022-12-18T09:52:49;-2.60;99.90
27128;DHT22;14660;49.008;8.390;2022-12-18T09:55:37;-2.40;99.90
27128;DHT22;14660;49.008;8.390;2022-12-18T10:00:55;-2.40;99.90
27128;DHT22;14660;49.008;8.390;2022-12-18T10:03:23;-2.40;99.90
27128;DHT22;14660;49.008;8.390;2022-12-18T10:09:24;-2.50;99.90
27128;DHT22;14660;49.008;8.390;2022-12-18T10:15:24;-2.20;99.90
27128;DHT22;14660;49.008;8.390;2022-12-18T10:18:15;-2.20;99.90
27128;DHT22;14660;49.008;8.390;2022-12-18T10:20:55;-2.00;99.90
27128;DHT22;14660;49.008;8.390;2022-12-18T10:23:51;-2.00;99.90
27128;DHT22;14660;49.008;8.390;2022-12-18T10:26:21;-2.00;99.90
27128;DHT22;14660;49.008;8.390;2022-12-18T10:28:48;-1.90;99.90
27128;DHT22;14660;49.008;8.390;2022-12-18T10:31:21;-1.70;99.90
27128;DHT22;14660;49.008;8.390;2022-12-18T10:33:48;-1.70;99.90
27128;DHT22;14660;49.008;8.390;2022-12-18T10:36:15;-1.70;99.90
27128;DHT22;14660;49.008;8.390;2022-12-18T10:38:41;-1.70;99.90
27128;DHT22;14660;49.008;8.390;2022-12-18T10:41:27;-1.60;99.90
27128;DHT22;14660;49.008;8.390;2022-12-18T10:47:06;-1.80;99.90
27128;DHT22;14660;49.008;8.390;2022-12-18T10:49:48;-1.70;99.90
27128;DHT22;14660;49.008;8.390;2022-12-18T10:52:21;-1.80;99.90
27128;DHT22;14660;49.008;8.390;2022-12-18T10:54:55;-1.70;99.90
27128;DHT22;14660;49.008;8.390;2022-12-18T10:57:50;-1.60;99.90
27128;DHT22;14660;49.008;8.390;2022-12-18T11:00:30;-1.60;99.90
27128;DHT22;14660;49.008;8.390;2022-12-18T11:02:57;-1.50;99.90
27128;DHT22;14660;49.008;8.390;2022-12-18T11:05:43;-1.40;99.90
27128;DHT22;14660;49.008;8.390;2022-12-18T11:08:20;-1.40;99.90
27128;DHT22;14660;49.008;8.390;2022-12-18T11:10:49;-1.50;99.90
27128;DHT22;14660;49.008;8.390;2022-12-18T11:13:33;-1.60;99.90
27128;DHT22;14660;49.008;8.390;2022-12-18T11:16:02;-1.50;99.90
27128;DHT22;14660;49.008;8.390;2022-12-18T11:18:38;-1.60;99.90
27128;DHT22;14660;49.008;8.390;2022-12-18T11:21:24;-1.60;99.90
27128;DHT22;14660;49.008;8.390;2022-12-18T11:23:52;-1.70;99.90
27128;DHT22;14660;49.008;8.390;2022-12-18T11:26:19;-1.70;99.90
27128;DHT22;14660;49.008;8.390;2022-12-18T11:29:12;-1.60;99.90
27128;DHT22;14660;49.008;8.390;2022-12-18T11:31:42;-1.70;99.90
27128;DHT22;14660;49.008;8.390;2022-12-18T11:34:30;-1.60;99.90
27128;DHT22;14660;49.008;8.390;2022-12-18T11:37:03;-1.60;99.90
27128;DHT22;14660;49.008;8.390;2022-12-18T11:39:51;-1.70;99.90
27128;DHT22;14660;49.008;8.390;2022-12-18T11:42:41;-1.60;99.90
27128;DHT22;14660;49.008;8.390;2022-12-18T11:45:30;-1.60;99.90
27128;DHT22;14660;49.008;8.390;2022-12-18T11:48:25;-1.60;99.90
27128;DHT22;14660;49.008;8.390;2022-12-18T11:50:55;-1.60;99.90
27128;DHT22;14660;49.008;8.390;2022-12-18T11:53:23;-1.60;99.90
27128;DHT22;14660;49.008;8.390;2022-12-18T12:20:22;-2.10;99.90
27128;DHT22;14660;49.008;8.390;2022-12-18T12:26:26;-2.10;99.90
27128;DHT22;14660;49.008;8.390;2022-12-18T12:38:18;-2.00;99.90
27128;DHT22;14660;49.008;8.390;2022-12-18T12:40:51;-1.70;99.90
27128;DHT22;14660;49.008;8.390;2022-12-18T12:46:21;-1.80;99.90
27128;DHT22;14660;49.008;8.390;2022-12-18T12:49:12;-1.70;99.90
27128;DHT22;14660;49.008;8.390;2022-12-18T12:51:43;-1.60;99.90
27128;DHT22;14660;49.008;8.390;2022-12-18T12:54:23;-1.60;99.90
27128;DHT22;14660;49.008;8.390;2022-12-18T12:57:53;-1.60;99.90
27128;DHT22;14660;49.008;8.390;2022-12-18T13:00:18;-1.70;99.90
27128;DHT22;14660;49.008;8.390;2022-12-18T13:06:14;-1.50;99.90
27128;DHT22;14660;49.008;8.390;2022-12-18T13:08:55;-1.70;99.90
27128;DHT22;14660;49.008;8.390;2022-12-18T13:11:42;-1.70;99.90
27128;DHT22;14660;49.008;8.390;2022-12-18T13:14:39;-1.80;99.90
27128;DHT22;14660;49.008;8.390;2022-12-18T13:17:26;-1.80;99.90
27128;DHT22;14660;49.008;8.390;2022-12-18T13:20:12;-1.80;99.90
27128;DHT22;14660;49.008;8.390;2022-12-18T13:22:57;-1.90;99.90
27128;DHT22;14660;49.008;8.390;2022-12-18T13:25:42;-1.80;99.90
27128;DHT22;14660;49.008;8.390;2022-12-18T13:31:01;-1.60;99.90
27128;DHT22;14660;49.008;8.390;2022-12-18T13:33:46;-1.60;99.90
27128;DHT22;14660;49.008;8.390;2022-12-18T13:36:32;-1.40;99.90
27128;DHT22;14660;49.008;8.390;2022-12-18T13:41:46;-1.90;99.90
27128;DHT22;14660;49.008;8.390;2022-12-18T13:44:25;-1.80;99.90
27128;DHT22;14660;49.008;8.390;2022-12-18T13:46:53;-1.80;99.90
27128;DHT22;14660;49.008;8.390;2022-12-18T13:49:38;-1.80;99.90
27128;DHT22;14660;49.008;8.390;2022-12-18T13:52:24;-1.70;99.90
27128;DHT22;14660;49.008;8.390;2022-12-18T13:54:54;-1.90;99.90
27128;DHT22;14660;49.008;8.390;2022-12-18T13:57:39;-1.90;99.90
27128;DHT22;14660;49.008;8.390;2022-12-18T14:03:19;-1.60;99.90
27128;DHT22;14660;49.008;8.390;2022-12-18T14:05:45;-1.60;99.90
27128;DHT22;14660;49.008;8.390;2022-12-18T14:08:15;-1.70;99.90
27128;DHT22;14660;49.008;8.390;2022-12-18T14:10:45;-1.70;99.90
27128;DHT22;14660;49.008;8.390;2022-12-18T14:13:36;-1.70;99.90
27128;DHT22;14660;49.008;8.390;2022-12-18T14:16:06;-1.60;99.90
27128;DHT22;14660;49.008;8.390;2022-12-18T14:19:00;-1.80;99.90
27128;DHT22;14660;49.008;8.390;2022-12-18T14:21:29;-1.60;99.90
27128;DHT22;14660;49.008;8.390;2022-12-18T14:29:35;-1.50;99.90
27128;DHT22;14660;49.008;8.390;2022-12-18T14:32:20;-1.50;99.90
27128;DHT22;14660;49.008;8.390;2022-12-18T14:34:52;-1.50;99.90
27128;DHT22;14660;49.008;8.390;2022-12-18T14:37:24;-1.30;99.90
27128;DHT22;14660;49.008;8.390;2022-12-18T14:40:03;-1.40;99.90
27128;DHT22;14660;49.008;8.390;2022-12-18T14:42:31;-1.50;99.90
27128;DHT22;14660;49.008;8.390;2022-12-18T14:51:00;-1.50;99.90
27128;DHT22;14660;49.008;8.390;2022-12-18T14:56:17;-1.80;99.90
27128;DHT22;14660;49.008;8.390;2022-12-18T14:59:02;-1.80;99.90
27128;DHT22;14660;49.008;8.390;2022-12-18T15:04:36;-1.80;99.90
27128;DHT22;14660;49.008;8.390;2022-12-18T15:07:23;-1.70;99.90
27128;DHT22;14660;49.008;8.390;2022-12-18T15:13:20;-1.80;99.90
27128;DHT22;14660;49.008;8.390;2022-12-18T15:15:49;-1.80;99.90
27128;DHT22;14660;49.008;8.390;2022-12-18T15:18:18;-1.90;99.90
27128;DHT22;14660;49.008;8.390;2022-12-18T15:21:09;-1.90;99.90
27128;DHT22;14660;49.008;8.390;2022-12-18T15:23:54;-1.80;99.90
27128;DHT22;14660;49.008;8.390;2022-12-18T15:26:22;-1.90;99.90
27128;DHT22;14660;49.008;8.390;2022-12-18T15:28:55;-1.90;99.90
27128;DHT22;14660;49.008;8.390;2022-12-18T15:31:42;-1.80;99.90
27128;DHT22;14660;49.008;8.390;2022-12-18T15:34:28;-1.80;99.90
27128;DHT22;14660;49.008;8.390;2022-12-18T15:36:55;-1.80;99.90
27128;DHT22;14660;49.008;8.390;2022-12-18T15:39:24;-1.90;99.90
27128;DHT22;14660;49.008;8.390;2022-12-18T15:41:51;-1.80;99.90
27128;DHT22;14660;49.008;8.390;2022-12-18T15:44:54;-1.70;99.90
27128;DHT22;14660;49.008;8.390;2022-12-18T15:47:21;-1.60;99.90
27128;DHT22;14660;49.008;8.390;2022-12-18T15:49:47;-1.60;99.90
27128;DHT22;14660;49.008;8.390;2022-12-18T15:52:15;-1.70;99.90
27128;DHT22;14660;49.008;8.390;2022-12-18T15:54:53;-1.70;99.90
27128;DHT22;14660;49.008;8.390;2022-12-18T15:57:38;-1.70;99.90
27128;DHT22;14660;49.008;8.390;2022-12-18T16:00:11;-1.80;99.90
27128;DHT22;14660;49.008;8.390;2022-12-18T16:02:38;-1.80;99.90
27128;DHT22;14660;49.008;8.390;2022-12-18T16:05:14;-1.80;99.90
27128;DHT22;14660;49.008;8.390;2022-12-18T16:07:42;-1.80;99.90
27128;DHT22;14660;49.008;8.390;2022-12-18T16:10:10;-1.90;99.90
27128;DHT22;14660;49.008;8.390;2022-12-18T16:12:37;-1.80;99.90
27128;DHT22;14660;49.008;8.390;2022-12-18T16:15:06;-1.80;99.90
27128;DHT22;14660;49.008;8.390;2022-12-18T16:17:32;-1.70;99.90
27128;DHT22;14660;49.008;8.390;2022-12-18T16:19:59;-1.80;99.90
27128;DHT22;14660;49.008;8.390;2022-12-18T16:22:28;-1.80;99.90
27128;DHT22;14660;49.008;8.390;2022-12-18T16:24:56;-1.80;99.90
27128;DHT22;14660;49.008;8.390;2022-12-18T16:27:25;-1.80;99.90
27128;DHT22;14660;49.008;8.390;2022-12-18T16:29:52;-1.70;99.90
27128;DHT22;14660;49.008;8.390;2022-12-18T16:32:20;-1.70;99.90
27128;DHT22;14660;49.008;8.390;2022-12-18T16:34:47;-1.60;99.90
27128;DHT22;14660;49.008;8.390;2022-12-18T16:37:15;-1.50;99.90
27128;DHT22;14660;49.008;8.390;2022-12-18T16:39:43;-1.40;99.90
27128;DHT22;14660;49.008;8.390;2022-12-18T16:42:19;-1.50;99.90
27128;DHT22;14660;49.008;8.390;2022-12-18T16:44:48;-1.40;99.90
27128;DHT22;14660;49.008;8.390;2022-12-18T16:47:16;-1.40;99.90
27128;DHT22;14660;49.008;8.390;2022-12-18T16:49:44;-1.30;99.90
27128;DHT22;14660;49.008;8.390;2022-12-18T16:52:13;-1.30;99.90
27128;DHT22;14660;49.008;8.390;2022-12-18T16:54:40;-1.30;99.90
27128;DHT22;14660;49.008;8.390;2022-12-18T16:57:10;-1.40;99.90
27128;DHT22;14660;49.008;8.390;2022-12-18T16:59:38;-1.40;99.90
27128;DHT22;14660;49.008;8.390;2022-12-18T17:02:10;-1.50;99.90
27128;DHT22;14660;49.008;8.390;2022-12-18T17:04:38;-1.30;99.90
27128;DHT22;14660;49.008;8.390;2022-12-18T17:07:04;-1.30;99.90
27128;DHT22;14660;49.008;8.390;2022-12-18T17:09:31;-1.40;99.90
27128;DHT22;14660;49.008;8.390;2022-12-18T17:11:58;-1.40;99.90
27128;DHT22;14660;49.008;8.390;2022-12-18T17:14:27;-1.40;99.90
27128;DHT22;14660;49.008;8.390;2022-12-18T17:16:54;-1.40;99.90
27128;DHT22;14660;49.008;8.390;2022-12-18T17:19:26;-1.40;99.90
27128;DHT22;14660;49.008;8.390;2022-12-18T17:21:53;-1.30;99.90
27128;DHT22;14660;49.008;8.390;2022-12-18T17:24:20;-1.20;99.90
27128;DHT22;14660;49.008;8.390;2022-12-18T17:26:47;-1.20;99.90
27128;DHT22;14660;49.008;8.390;2022-12-18T17:29:19;-1.20;99.90
27128;DHT22;14660;49.008;8.390;2022-12-18T17:31:46;-1.30;99.90
27128;DHT22;14660;49.008;8.390;2022-12-18T17:34:13;-1.40;99.90
27128;DHT22;14660;49.008;8.390;2022-12-18T17:36:40;-1.40;99.90
27128;DHT22;14660;49.008;8.390;2022-12-18T17:39:10;-1.40;99.90
27128;DHT22;14660;49.008;8.390;2022-12-18T17:41:41;-1.40;99.90
27128;DHT22;14660;49.008;8.390;2022-12-18T17:44:09;-1.40;99.90
27128;DHT22;14660;49.008;8.390;2022-12-18T17:46:35;-1.50;99.90
27128;DHT22;14660;49.008;8.390;2022-12-18T17:49:03;-1.50;99.90
27128;DHT22;14660;49.008;8.390;2022-12-18T17:51:30;-1.40;99.90
27128;DHT22;14660;49.008;8.390;2022-12-18T17:53:57;-1.40;99.90
27128;DHT22;14660;49.008;8.390;2022-12-18T17:56:24;-1.40;99.90
27128;DHT22;14660;49.008;8.390;2022-12-18T17:58:51;-1.40;99.90
27128;DHT22;14660;49.008;8.390;2022-12-18T18:01:20;-1.30;99.90